createdAt,value
2023-03-02T00:02:02.616Z,69.30
2023-03-02T00:04:49.260Z,69.78
2023-03-02T00:07:25.340Z,83.25
2023-03-02T00:09:55.713Z,79.68
2023-03-02T00:12:25.108Z,87.70
2023-03-02T00:14:53.813Z,102.88
2023-03-02T00:17:28.805Z,96.53
2023-03-02T00:20:13.860Z,96.60
2023-03-02T00:22:45.306Z,124.28
2023-03-02T00:25:15.912Z,160.63
2023-03-02T00:27:45.849Z,165.88
2023-03-02T00:30:15.772Z,186.75
2023-03-02T00:32:45.274Z,173.70
2023-03-02T00:35:14.295Z,178.98
2023-03-02T00:37:43.577Z,178.50
2023-03-02T00:40:13.346Z,172.20
2023-03-02T00:42:42.459Z,158.80
2023-03-02T00:45:11.780Z,155.38
2023-03-02T00:47:42.233Z,169.77
2023-03-02T00:50:12.212Z,152.20
2023-03-02T00:52:41.100Z,158.15
2023-03-02T00:55:10.490Z,164.70
2023-03-02T00:57:40.135Z,173.45
2023-03-02T01:00:13.836Z,187.73
2023-03-02T01:02:46.201Z,185.75
2023-03-02T01:05:21.174Z,199.93
2023-03-02T01:07:50.820Z,209.07
2023-03-02T01:10:20.136Z,203.55
2023-03-02T01:12:49.780Z,177.30
2023-03-02T01:15:19.143Z,155.20
2023-03-02T01:17:48.545Z,158.70
2023-03-02T01:20:19.317Z,165.32
2023-03-02T01:22:49.309Z,146.82
2023-03-02T01:25:18.689Z,179.82
2023-03-02T01:27:48.814Z,195.18
2023-03-02T01:30:18.325Z,192.13
2023-03-02T01:32:47.683Z,202.55
2023-03-02T01:35:19.853Z,223.32
2023-03-02T01:37:49.495Z,219.13
2023-03-02T01:40:18.843Z,245.23
2023-03-02T01:42:58.523Z,227.07
2023-03-02T01:46:12.610Z,198.43
2023-03-02T01:48:50.455Z,182.93
2023-03-02T01:51:29.316Z,165.60
2023-03-02T01:54:07.668Z,178.18
2023-03-02T01:56:41.295Z,163.63
2023-03-02T01:59:15.827Z,167.48
2023-03-02T02:01:51.657Z,173.93
2023-03-02T02:04:23.147Z,165.75
2023-03-02T02:06:56.588Z,156.40
2023-03-02T02:09:28.002Z,142.40
2023-03-02T02:11:58.186Z,150.48
2023-03-02T02:14:27.966Z,132.68
2023-03-02T02:16:57.929Z,126.07
2023-03-02T02:19:41.964Z,146.00
2023-03-02T02:22:12.755Z,165.93
2023-03-02T02:24:53.359Z,162.25
2023-03-02T02:27:23.286Z,154.20
2023-03-02T02:29:54.241Z,197.95
2023-03-02T02:32:31.814Z,216.43
2023-03-02T02:35:06.935Z,261.35
2023-03-02T02:37:56.863Z,258.45
2023-03-02T02:40:45.873Z,283.60
2023-03-02T02:43:21.149Z,281.35
2023-03-02T02:45:56.925Z,302.15
2023-03-02T02:48:32.152Z,232.93
2023-03-02T02:51:04.277Z,178.07
2023-03-02T02:53:51.589Z,158.30
2023-03-02T02:56:21.115Z,152.82
2023-03-02T02:58:55.157Z,176.88
2023-03-02T03:01:27.273Z,141.88
2023-03-02T03:04:02.026Z,146.68
2023-03-02T03:06:43.141Z,157.38
2023-03-02T03:09:14.346Z,157.55
2023-03-02T03:11:55.037Z,152.80
2023-03-02T03:14:42.096Z,173.50
2023-03-02T03:17:15.474Z,169.65
2023-03-02T03:19:53.461Z,170.32
2023-03-02T03:22:22.501Z,174.52
2023-03-02T03:24:52.248Z,175.98
2023-03-02T03:27:21.414Z,154.60
2023-03-02T03:29:50.540Z,163.88
2023-03-02T03:32:22.230Z,167.82
2023-03-02T03:34:54.468Z,170.55
2023-03-02T03:37:28.491Z,184.70
2023-03-02T03:39:57.785Z,174.68
2023-03-02T03:42:26.729Z,145.35
2023-03-02T03:44:57.267Z,160.25
2023-03-02T03:47:26.534Z,144.90
2023-03-02T03:49:55.251Z,146.50
2023-03-02T03:52:31.365Z,123.47
2023-03-02T03:55:13.425Z,132.15
2023-03-02T03:57:44.021Z,129.52
2023-03-02T04:00:18.110Z,134.60
2023-03-02T04:03:05.161Z,114.90
2023-03-02T04:05:35.208Z,127.97
2023-03-02T04:08:05.322Z,134.23
2023-03-02T04:10:35.723Z,107.28
2023-03-02T04:13:05.139Z,93.28
2023-03-02T04:15:34.763Z,95.72
2023-03-02T04:18:04.118Z,70.05
2023-03-02T04:20:34.125Z,72.22
2023-03-02T04:23:03.226Z,72.57
2023-03-02T04:25:32.506Z,68.28
2023-03-02T04:28:21.920Z,72.13
2023-03-02T04:30:52.520Z,88.55
2023-03-02T04:33:21.436Z,67.80
2023-03-02T04:35:50.377Z,73.20
2023-03-02T04:38:19.567Z,78.78
2023-03-02T04:40:48.599Z,51.50
2023-03-02T04:43:17.698Z,60.38
2023-03-02T04:45:46.506Z,53.53
2023-03-02T04:48:15.513Z,56.08
2023-03-02T04:50:44.390Z,46.67
2023-03-02T04:53:13.304Z,48.78
2023-03-02T04:55:42.295Z,51.83
2023-03-02T04:58:11.278Z,50.60
2023-03-02T05:00:40.477Z,54.80
2023-03-02T05:03:09.550Z,93.55
2023-03-02T05:05:38.509Z,40.60
2023-03-02T05:08:07.435Z,56.75
2023-03-02T05:10:36.156Z,45.75
2023-03-02T05:13:06.751Z,46.50
2023-03-02T05:15:38.348Z,57.42
2023-03-02T05:18:09.875Z,35.30
2023-03-02T05:20:39.223Z,31.92
2023-03-02T05:23:10.974Z,38.40
2023-03-02T05:25:40.104Z,28.45
2023-03-02T05:28:08.839Z,31.52
2023-03-02T05:30:38.571Z,38.42
2023-03-02T05:33:07.568Z,32.28
2023-03-02T05:35:36.889Z,38.00
2023-03-02T05:38:06.396Z,29.98
2023-03-02T05:40:35.309Z,21.63
2023-03-02T05:43:04.551Z,37.72
2023-03-02T05:45:37.046Z,36.72
2023-03-02T05:48:07.651Z,41.75
2023-03-02T05:50:36.696Z,32.42
2023-03-02T05:53:05.905Z,39.65
2023-03-02T05:55:38.050Z,32.03
2023-03-02T05:58:20.985Z,33.35
2023-03-02T06:00:50.347Z,37.17
2023-03-02T06:03:19.712Z,31.27
2023-03-02T06:05:53.254Z,38.05
2023-03-02T06:08:23.021Z,36.75
2023-03-02T06:10:51.857Z,33.13
2023-03-02T06:13:21.128Z,30.08
2023-03-02T06:15:49.757Z,33.95
2023-03-02T06:18:18.825Z,30.67
2023-03-02T06:20:47.696Z,35.63
2023-03-02T06:23:17.837Z,28.35
2023-03-02T06:25:49.653Z,33.33
2023-03-02T06:28:20.870Z,24.63
2023-03-02T06:30:50.913Z,28.90
2023-03-02T06:33:22.137Z,28.30
2023-03-02T06:35:51.456Z,56.13
2023-03-02T06:38:20.336Z,39.10
2023-03-02T06:40:49.316Z,32.00
2023-03-02T06:43:19.919Z,26.15
2023-03-02T06:45:49.067Z,35.28
2023-03-02T06:48:18.318Z,37.15
2023-03-02T06:50:47.538Z,27.77
2023-03-02T06:53:18.623Z,29.02
2023-03-02T06:55:49.231Z,20.55
2023-03-02T06:58:18.331Z,24.02
2023-03-02T07:00:47.102Z,22.92
2023-03-02T07:03:16.095Z,25.98
2023-03-02T07:05:46.321Z,22.23
2023-03-02T07:08:15.598Z,18.48
2023-03-02T07:10:44.450Z,36.28
2023-03-02T07:13:14.148Z,20.30
2023-03-02T07:21:42.614Z,31.20
2023-03-02T07:24:11.582Z,41.55
2023-03-02T07:26:40.281Z,29.50
2023-03-02T07:29:09.247Z,31.08
2023-03-02T07:31:37.888Z,31.52
2023-03-02T07:34:06.743Z,37.40
2023-03-02T07:36:35.636Z,45.40
2023-03-02T07:39:05.466Z,39.97
2023-03-02T07:41:34.419Z,38.50
2023-03-02T07:44:03.423Z,48.97
2023-03-02T07:46:32.090Z,42.67
2023-03-02T07:49:01.250Z,36.63
2023-03-02T07:51:30.438Z,42.13
2023-03-02T07:53:59.882Z,30.65
2023-03-02T07:56:28.601Z,29.75
2023-03-02T07:58:57.560Z,43.17
2023-03-02T08:01:26.425Z,36.72
2023-03-02T08:03:55.374Z,33.83
2023-03-02T08:06:24.534Z,32.83
2023-03-02T08:08:53.544Z,38.80
2023-03-02T08:11:22.273Z,35.05
2023-03-02T08:13:51.347Z,28.10
2023-03-02T08:16:20.106Z,40.22
2023-03-02T08:18:49.442Z,26.17
2023-03-02T08:21:22.248Z,23.90
2023-03-02T08:23:51.580Z,32.80
2023-03-02T08:26:21.877Z,26.08
2023-03-02T08:28:50.906Z,40.10
2023-03-02T08:31:19.650Z,36.38
2023-03-02T08:33:48.611Z,33.13
2023-03-02T08:36:20.213Z,39.35
2023-03-02T08:38:49.800Z,41.38
2023-03-02T08:41:22.134Z,26.52
2023-03-02T08:46:22.394Z,28.35
2023-03-02T08:48:54.818Z,40.67
2023-03-02T08:53:58.254Z,29.13
2023-03-02T08:56:30.458Z,26.20
2023-03-02T08:59:05.101Z,25.13
2023-03-02T09:01:37.446Z,32.75
2023-03-02T09:04:08.693Z,36.92
2023-03-02T09:06:43.451Z,32.47
2023-03-02T09:09:14.733Z,32.63
2023-03-02T09:11:44.400Z,28.75
2023-03-02T09:14:13.176Z,32.20
2023-03-02T09:16:42.382Z,29.25
2023-03-02T09:19:13.236Z,36.05
2023-03-02T09:21:42.319Z,44.42
2023-03-02T09:24:11.244Z,20.63
2023-03-02T09:26:43.963Z,37.00
2023-03-02T09:29:12.874Z,30.60
2023-03-02T09:31:41.519Z,28.40
2023-03-02T09:34:10.560Z,22.30
2023-03-02T09:36:40.100Z,35.22
2023-03-02T09:48:30.218Z,34.92
2023-03-02T09:51:24.702Z,43.13
2023-03-02T09:54:18.494Z,37.33
2023-03-02T09:56:53.558Z,24.77
2023-03-02T09:59:25.952Z,28.67
2023-03-02T10:04:39.666Z,39.17
2023-03-02T10:07:16.935Z,41.85
2023-03-02T10:09:46.161Z,48.90
2023-03-02T10:12:37.186Z,44.92
2023-03-02T10:15:15.684Z,46.95
2023-03-02T10:17:55.149Z,42.20
2023-03-02T10:20:52.986Z,33.78
2023-03-02T10:23:50.701Z,38.10
2023-03-02T10:26:32.901Z,30.60
2023-03-02T10:29:35.766Z,49.00
2023-03-02T10:32:30.998Z,32.33
2023-03-02T10:35:03.357Z,29.83
2023-03-02T10:37:32.877Z,47.75
2023-03-02T10:40:01.641Z,37.65
2023-03-02T10:42:35.515Z,30.52
2023-03-02T10:45:31.888Z,27.13
2023-03-02T10:48:10.264Z,39.25
2023-03-02T10:50:39.948Z,40.03
2023-03-02T11:44:22.728Z,39.42
2023-03-02T11:49:48.271Z,59.25
2023-03-02T11:52:29.139Z,59.83
2023-03-02T11:55:21.220Z,44.65
2023-03-02T11:58:09.227Z,41.33
2023-03-02T12:00:42.876Z,47.25
2023-03-02T12:03:17.378Z,48.70
2023-03-02T12:05:55.264Z,46.33
2023-03-02T12:08:24.123Z,41.40
2023-03-02T12:11:20.187Z,43.38
2023-03-02T12:16:43.352Z,52.35
2023-03-02T12:19:18.573Z,49.38
2023-03-02T12:22:03.194Z,69.18
2023-03-02T12:24:35.748Z,60.83
2023-03-02T12:27:15.553Z,64.57
2023-03-02T12:29:52.260Z,70.30
2023-03-02T12:32:21.204Z,79.70
2023-03-02T12:35:13.526Z,59.88
2023-03-02T12:37:48.268Z,70.57
2023-03-02T12:40:29.225Z,54.58
2023-03-02T12:43:19.658Z,54.15
2023-03-02T12:46:09.917Z,61.85
2023-03-02T12:49:06.253Z,48.55
2023-03-02T12:51:58.922Z,52.08
2023-03-02T12:54:31.455Z,63.50
2023-03-02T12:57:09.543Z,54.78
2023-03-02T12:59:38.705Z,34.47
2023-03-02T13:02:19.337Z,53.25
2023-03-02T13:04:56.483Z,45.80
2023-03-02T13:07:36.384Z,39.58
2023-03-02T13:10:21.349Z,40.75
2023-03-02T13:12:50.308Z,36.22
2023-03-02T13:15:19.613Z,47.38
2023-03-02T13:17:57.311Z,44.88
2023-03-02T13:20:31.117Z,63.40
2023-03-02T13:23:00.407Z,78.70
2023-03-02T13:25:32.031Z,74.93
2023-03-02T13:28:08.429Z,75.07
2023-03-02T13:30:42.631Z,74.68
2023-03-02T13:33:24.394Z,70.78
2023-03-02T13:35:53.540Z,85.25
2023-03-02T13:38:26.834Z,82.20
2023-03-02T13:40:57.322Z,80.53
2023-03-02T13:43:35.805Z,62.03
2023-03-02T13:46:08.144Z,66.45
2023-03-02T13:48:37.186Z,56.17
2023-03-02T13:51:17.831Z,70.75
2023-03-02T13:53:54.688Z,60.75
2023-03-02T13:56:29.503Z,59.72
2023-03-02T13:58:59.081Z,61.28
2023-03-02T14:01:29.204Z,83.53
2023-03-02T14:03:58.334Z,87.40
2023-03-02T14:06:27.323Z,74.72
2023-03-02T14:08:56.096Z,60.13
2023-03-02T14:11:24.918Z,55.13
2023-03-02T14:13:56.292Z,61.47
2023-03-02T14:16:25.356Z,64.82
2023-03-02T14:18:54.314Z,64.25
2023-03-02T14:21:27.743Z,69.63
2023-03-02T14:23:56.872Z,85.18
2023-03-02T14:26:45.281Z,74.45
2023-03-02T14:29:14.909Z,64.82
2023-03-02T14:31:43.811Z,71.60
2023-03-02T14:34:17.314Z,77.63
2023-03-02T14:36:49.239Z,79.85
2023-03-02T14:39:48.153Z,91.53
2023-03-02T14:42:20.169Z,108.00
2023-03-02T14:44:51.231Z,80.60
2023-03-02T14:47:20.474Z,77.13
2023-03-02T14:49:50.396Z,68.72
2023-03-02T14:52:28.658Z,66.78
2023-03-02T14:55:01.778Z,69.40
2023-03-02T14:57:36.528Z,87.55
2023-03-02T15:00:07.008Z,79.80
2023-03-02T15:02:36.386Z,69.15
2023-03-02T15:05:05.550Z,67.72
2023-03-02T15:07:34.479Z,80.80
2023-03-02T15:10:03.147Z,56.88
2023-03-02T15:12:32.364Z,54.97
2023-03-02T15:15:01.315Z,63.45
2023-03-02T15:17:30.269Z,54.10
2023-03-02T15:19:59.022Z,66.32
2023-03-02T15:22:28.326Z,68.82
2023-03-02T15:24:57.250Z,70.72
2023-03-02T15:27:26.536Z,75.28
2023-03-02T15:29:56.811Z,73.05
2023-03-02T15:32:26.014Z,83.07
2023-03-02T15:34:54.913Z,76.30
2023-03-02T15:37:24.584Z,91.50
2023-03-02T15:39:57.671Z,91.22
2023-03-02T15:42:27.463Z,91.80
2023-03-02T15:44:56.279Z,74.55
2023-03-02T15:47:25.830Z,72.78
2023-03-02T15:49:57.969Z,71.15
2023-03-02T15:54:55.474Z,68.10
2023-03-02T15:57:24.387Z,68.30
2023-03-02T15:59:53.127Z,67.50
2023-03-02T16:02:22.437Z,72.75
2023-03-02T16:04:51.217Z,95.47
2023-03-02T16:07:20.172Z,64.50
2023-03-02T16:09:49.097Z,58.90
2023-03-02T16:12:21.296Z,66.95
2023-03-02T16:14:50.444Z,58.25
2023-03-02T16:17:20.013Z,66.53
2023-03-02T16:19:49.299Z,63.22
2023-03-02T16:22:18.063Z,59.90
2023-03-02T16:24:49.760Z,78.22
2023-03-02T16:27:19.080Z,104.60
2023-03-02T16:29:47.865Z,133.27
2023-03-02T16:32:17.073Z,137.93
2023-03-02T16:34:45.842Z,110.28
2023-03-02T16:37:15.494Z,114.00
2023-03-02T16:39:44.443Z,101.03
2023-03-02T16:42:13.375Z,99.20
2023-03-02T16:44:42.227Z,107.68
2023-03-02T16:47:11.689Z,118.10
2023-03-02T16:49:40.330Z,109.72
2023-03-02T16:52:09.464Z,111.10
2023-03-02T16:54:38.344Z,104.70
2023-03-02T16:57:07.450Z,110.30
2023-03-02T16:59:36.111Z,110.32
2023-03-02T17:02:05.286Z,97.32
2023-03-02T17:04:35.831Z,89.50
2023-03-02T17:07:06.448Z,86.03
2023-03-02T17:09:38.465Z,79.28
2023-03-02T17:12:08.107Z,100.72
2023-03-02T17:14:36.812Z,81.38
2023-03-02T17:17:05.747Z,80.25
2023-03-02T17:19:35.051Z,69.65
2023-03-02T17:22:04.776Z,73.35
2023-03-02T17:24:34.120Z,78.60
2023-03-02T17:27:04.235Z,93.07
2023-03-02T17:29:34.465Z,96.97
2023-03-02T17:32:03.353Z,106.55
2023-03-02T17:34:32.508Z,106.63
2023-03-02T17:37:01.704Z,126.45
2023-03-02T17:39:31.011Z,106.82
2023-03-02T17:41:59.780Z,96.15
2023-03-02T17:44:28.782Z,97.10
2023-03-02T17:46:57.624Z,120.80
2023-03-02T17:49:26.741Z,130.75
2023-03-02T17:51:55.413Z,108.05
2023-03-02T17:54:24.532Z,126.82
2023-03-02T17:56:53.262Z,109.22
2023-03-02T17:59:22.241Z,88.53
2023-03-02T18:01:51.532Z,83.03
2023-03-02T18:04:20.512Z,73.00
2023-03-02T18:06:49.480Z,65.45
2023-03-02T18:09:18.633Z,88.88
2023-03-02T18:11:48.077Z,94.45
2023-03-02T18:14:20.953Z,77.75
2023-03-02T18:16:50.022Z,72.22
2023-03-02T18:19:18.684Z,73.95
2023-03-02T18:21:47.772Z,84.95
2023-03-02T18:24:16.525Z,65.82
2023-03-02T18:26:45.364Z,79.75
2023-03-02T18:29:14.126Z,74.57
2023-03-02T18:31:43.296Z,67.40
2023-03-02T18:34:12.109Z,85.07
2023-03-02T18:36:41.744Z,78.50
2023-03-02T18:39:10.464Z,84.97
2023-03-02T18:41:39.396Z,71.57
2023-03-02T18:44:08.297Z,86.35
2023-03-02T18:46:37.513Z,89.63
2023-03-02T18:49:06.237Z,67.80
2023-03-02T18:51:35.376Z,65.75
2023-03-02T18:54:04.069Z,75.28
2023-03-02T18:56:33.044Z,74.13
2023-03-02T18:59:01.940Z,63.78
2023-03-02T19:01:32.965Z,77.53
2023-03-02T19:04:03.209Z,86.75
2023-03-02T19:06:33.093Z,73.38
2023-03-02T19:09:02.219Z,79.40
2023-03-02T19:11:31.114Z,76.03
2023-03-02T19:13:59.976Z,70.78
2023-03-02T19:16:28.879Z,68.35
2023-03-02T19:18:58.255Z,78.85
2023-03-02T19:21:27.013Z,82.15
2023-03-02T19:23:56.102Z,88.15
2023-03-02T19:26:24.993Z,89.25
2023-03-02T19:28:54.237Z,74.20
2023-03-02T19:31:25.206Z,86.43
2023-03-02T19:33:54.865Z,93.88
2023-03-02T19:36:23.673Z,93.05
2023-03-02T19:38:52.834Z,95.15
2023-03-02T19:41:22.391Z,98.32
2023-03-02T19:43:51.680Z,126.65
2023-03-02T19:46:20.762Z,119.45
2023-03-02T19:48:49.781Z,109.45
2023-03-02T19:51:18.576Z,103.90
2023-03-02T19:53:48.028Z,100.43
2023-03-02T19:56:17.501Z,96.65
2023-03-02T19:58:50.932Z,98.22
2023-03-02T20:01:25.939Z,100.45
2023-03-02T20:03:57.232Z,83.05
2023-03-02T20:06:31.408Z,92.47
2023-03-02T20:09:06.933Z,87.32
2023-03-02T20:11:36.080Z,95.00
2023-03-02T20:14:04.850Z,81.80
2023-03-02T20:16:36.112Z,73.20
2023-03-02T20:19:07.088Z,93.60
2023-03-02T20:21:36.977Z,104.47
2023-03-02T20:24:06.912Z,105.78
2023-03-02T20:26:35.597Z,107.10
2023-03-02T20:29:06.162Z,98.70
2023-03-02T20:31:36.240Z,105.60
2023-03-02T20:34:09.690Z,102.38
2023-03-02T20:36:39.385Z,120.15
2023-03-02T20:39:15.418Z,124.20
2023-03-02T20:41:44.869Z,106.18
2023-03-02T20:44:14.795Z,88.25
2023-03-02T20:46:48.609Z,94.57
2023-03-02T20:49:17.776Z,105.25
2023-03-02T20:51:55.480Z,89.53
2023-03-02T20:54:27.806Z,86.50
2023-03-02T20:56:57.427Z,96.88
2023-03-02T20:59:26.972Z,81.43
2023-03-02T21:01:56.107Z,82.03
2023-03-02T21:04:25.102Z,64.93
2023-03-02T21:06:54.072Z,60.88
2023-03-02T21:09:22.930Z,62.15
2023-03-02T21:11:52.541Z,64.05
2023-03-02T21:14:21.501Z,66.95
2023-03-02T21:16:50.619Z,63.55
2023-03-02T21:19:23.039Z,74.90
2023-03-02T21:24:21.669Z,58.30
2023-03-02T21:26:53.677Z,60.65
2023-03-02T21:29:25.213Z,64.78
2023-03-02T21:31:54.914Z,76.80
2023-03-02T21:34:23.914Z,75.25
2023-03-02T21:36:56.026Z,71.45
2023-03-02T21:39:25.246Z,76.57
2023-03-02T21:41:54.997Z,58.20
2023-03-02T21:44:24.685Z,77.53
2023-03-02T21:46:53.465Z,57.33
2023-03-02T21:49:24.042Z,59.25
2023-03-02T21:51:53.150Z,52.47
2023-03-02T21:54:21.847Z,52.78
2023-03-02T21:56:51.182Z,48.72
2023-03-02T21:59:20.133Z,52.05
2023-03-02T22:01:49.262Z,42.45
2023-03-02T22:04:18.090Z,53.42
2023-03-02T22:06:47.397Z,45.33
2023-03-02T22:09:16.191Z,46.78
2023-03-02T22:11:45.746Z,37.35
2023-03-02T22:14:18.995Z,47.15
2023-03-02T22:16:48.956Z,46.03
2023-03-02T22:19:28.000Z,44.58
2023-03-02T22:22:01.458Z,39.78
2023-03-02T22:24:32.591Z,44.35
2023-03-02T22:27:08.026Z,36.47
2023-03-02T22:29:37.172Z,41.13
2023-03-02T22:32:38.080Z,43.88
2023-03-02T22:35:24.281Z,48.63
2023-03-02T22:38:01.168Z,55.95
2023-03-02T22:40:35.780Z,53.60
2023-03-02T22:43:30.730Z,62.53
2023-03-02T22:46:22.660Z,86.25
2023-03-02T22:48:53.264Z,82.85
2023-03-02T22:51:25.491Z,100.32
2023-03-02T22:53:57.408Z,85.50
2023-03-02T22:56:35.111Z,84.40
2023-03-02T22:59:15.376Z,76.97
2023-03-02T23:01:46.287Z,90.10
2023-03-02T23:04:21.458Z,79.93
2023-03-02T23:07:03.636Z,83.95
2023-03-02T23:09:36.725Z,78.60
2023-03-02T23:12:28.273Z,81.35
2023-03-02T23:14:59.179Z,76.18
2023-03-02T23:17:37.203Z,90.05
2023-03-02T23:20:09.509Z,97.35
2023-03-02T23:22:40.005Z,94.05
2023-03-02T23:25:10.034Z,94.47
2023-03-02T23:27:38.726Z,89.20
2023-03-02T23:30:08.637Z,91.28
2023-03-02T23:32:37.412Z,107.15
2023-03-02T23:35:06.796Z,96.90
2023-03-02T23:37:35.541Z,94.65
2023-03-02T23:40:04.966Z,105.35
2023-03-02T23:42:33.739Z,115.60
2023-03-02T23:45:02.832Z,92.22
2023-03-02T23:47:31.634Z,88.38
2023-03-02T23:50:00.511Z,81.63
2023-03-02T23:52:29.361Z,82.65
2023-03-02T23:54:58.524Z,88.80
2023-03-02T23:57:27.862Z,62.75
2023-03-02T23:59:57.006Z,70.53
